Time;durP1;ratioP1;P1;durP2;ratioP2;P2;SDS_P1;SDS_P2;PMS_P1;PMS_P2;Temp;Humidity;BMP_temperature;BMP_pressure;BME280_temperature;BME280_humidity;BME280_pressure;Samples;Min_cycle;Max_cycle;Signal;HPM_P1;HPM_P2
2023/10/08 00:01:06;;;;;;;0.80;0.80;;;;;;;;;;5114487;28;20445;-64
2023/10/08 00:03:33;;;;;;;0.70;0.70;;;;;;;;;;5114623;28;20463;-64
2023/10/08 00:06:06;;;;;;;0.70;0.70;;;;;;;;;;5113093;28;20450;-65
2023/10/08 00:08:34;;;;;;;0.70;0.70;;;;;;;;;;5114633;28;20903;-65
2023/10/08 00:11:06;;;;;;;1.00;1.00;;;;;;;;;;5113542;28;20533;-64
2023/10/08 00:13:38;;;;;;;0.70;0.70;;;;;;;;;;5113795;28;20433;-64
2023/10/08 00:16:09;;;;;;;0.70;0.70;;;;;;;;;;5113552;28;20514;-65
2023/10/08 00:18:37;;;;;;;1.00;1.00;;;;;;;;;;5113572;28;20509;-64
2023/10/08 00:21:16;;;;;;;0.80;0.80;;;;;;;;;;5114341;28;20497;-66
2023/10/08 00:23:49;;;;;;;1.77;1.17;;;;;;;;;;5114117;28;20851;-65
2023/10/08 00:26:27;;;;;;;0.90;0.90;;;;;;;;;;5113837;28;20437;-65
2023/10/08 00:28:56;;;;;;;0.70;0.70;;;;;;;;;;5113779;28;20447;-65
2023/10/08 00:31:26;;;;;;;0.80;0.80;;;;;;;;;;5113493;28;20435;-65
2023/10/08 00:33:54;;;;;;;0.70;0.70;;;;;;;;;;5113942;28;20425;-65
2023/10/08 00:36:21;;;;;;;1.00;1.00;;;;;;;;;;5113952;28;20494;-65
2023/10/08 00:38:50;;;;;;;0.77;0.77;;;;;;;;;;5113629;28;20473;-65
2023/10/08 00:41:21;;;;;;;1.20;1.13;;;;;;;;;;5113487;28;20536;-65
2023/10/08 00:43:51;;;;;;;1.57;1.47;;;;;;;;;;5113770;28;20428;-65
2023/10/08 00:46:23;;;;;;;0.90;0.90;;;;;;;;;;5113489;28;20446;-64
2023/10/08 00:48:51;;;;;;;0.70;0.70;;;;;;;;;;5113470;28;20920;-64
2023/10/08 00:51:26;;;;;;;2.40;2.30;;;;;;;;;;5113430;28;20447;-64
2023/10/08 00:53:59;;;;;;;0.70;0.70;;;;;;;;;;5114074;28;20456;-65
2023/10/08 00:56:45;;;;;;;0.80;0.80;;;;;;;;;;5114085;28;20469;-63
2023/10/08 00:59:14;;;;;;;1.20;1.20;;;;;;;;;;5113474;28;21080;-64
2023/10/08 01:01:45;;;;;;;0.70;0.70;;;;;;;;;;5113180;28;20530;-64
2023/10/08 01:04:16;;;;;;;0.80;0.80;;;;;;;;;;5114025;28;20501;-64
2023/10/08 01:06:44;;;;;;;1.17;1.00;;;;;;;;;;5113776;28;20536;-64
2023/10/08 01:09:18;;;;;;;1.10;1.10;;;;;;;;;;5113254;28;21004;-64
2023/10/08 01:11:49;;;;;;;0.80;0.80;;;;;;;;;;5113409;28;20886;-64
2023/10/08 01:14:18;;;;;;;0.70;0.70;;;;;;;;;;5113829;28;20417;-64
2023/10/08 01:16:47;;;;;;;0.80;0.80;;;;;;;;;;5114639;28;20438;-64
2023/10/08 01:19:20;;;;;;;1.00;0.90;;;;;;;;;;5117891;28;20961;-65
2023/10/08 01:21:47;;;;;;;0.70;0.70;;;;;;;;;;5117768;28;20422;-65
2023/10/08 01:24:18;;;;;;;0.80;0.80;;;;;;;;;;5117312;28;20435;-64
2023/10/08 01:26:45;;;;;;;0.80;0.80;;;;;;;;;;5117006;28;20437;-64
2023/10/08 01:29:19;;;;;;;1.10;1.10;;;;;;;;;;5116855;28;20442;-64
2023/10/08 01:31:48;;;;;;;1.00;0.90;;;;;;;;;;5116800;28;20424;-64
2023/10/08 01:34:17;;;;;;;0.80;0.80;;;;;;;;;;5116724;28;20531;-64
2023/10/08 01:36:45;;;;;;;0.70;0.70;;;;;;;;;;5116896;28;20484;-65
2023/10/08 01:39:15;;;;;;;0.70;0.70;;;;;;;;;;5116903;28;20814;-64
2023/10/08 01:41:46;;;;;;;0.70;0.70;;;;;;;;;;5116570;28;20490;-64
2023/10/08 01:44:14;;;;;;;0.70;0.70;;;;;;;;;;5117150;28;20788;-64
2023/10/08 01:46:41;;;;;;;0.77;0.77;;;;;;;;;;5117284;28;20438;-64
2023/10/08 01:49:14;;;;;;;0.70;0.70;;;;;;;;;;5116945;28;20957;-65
2023/10/08 01:51:46;;;;;;;0.70;0.70;;;;;;;;;;5117047;28;20428;-64
2023/10/08 01:54:17;;;;;;;0.70;0.70;;;;;;;;;;5117294;28;20438;-64
2023/10/08 01:56:46;;;;;;;1.47;1.40;;;;;;;;;;5116991;28;20808;-64
2023/10/08 01:59:15;;;;;;;4.10;1.93;;;;;;;;;;5116484;28;20577;-64
2023/10/08 02:01:43;;;;;;;1.03;1.03;;;;;;;;;;5116479;28;20438;-64
2023/10/08 02:04:12;;;;;;;1.77;1.67;;;;;;;;;;5116739;28;20461;-65
2023/10/08 02:06:40;;;;;;;1.60;1.50;;;;;;;;;;5116172;28;20439;-64
2023/10/08 02:09:08;;;;;;;0.90;0.90;;;;;;;;;;5116303;28;20452;-64
2023/10/08 02:11:49;;;;;;;0.80;0.80;;;;;;;;;;5116258;28;20437;-64
2023/10/08 02:14:17;;;;;;;0.80;0.80;;;;;;;;;;5116350;28;20423;-64
2023/10/08 02:16:44;;;;;;;2.07;1.53;;;;;;;;;;5115950;28;20976;-64
2023/10/08 02:19:12;;;;;;;0.80;0.80;;;;;;;;;;5115884;28;20567;-64
2023/10/08 02:21:41;;;;;;;0.73;0.73;;;;;;;;;;5115945;28;20442;-64
2023/10/08 02:24:11;;;;;;;1.27;1.20;;;;;;;;;;5115857;28;20438;-64
2023/10/08 02:26:38;;;;;;;0.70;0.70;;;;;;;;;;5116137;28;20445;-64
2023/10/08 02:29:10;;;;;;;1.03;1.03;;;;;;;;;;5115369;28;20521;-64
2023/10/08 02:31:38;;;;;;;1.00;1.00;;;;;;;;;;5115839;28;20433;-64
2023/10/08 02:34:07;;;;;;;0.90;0.90;;;;;;;;;;5115859;28;20433;-64
2023/10/08 02:36:37;;;;;;;1.17;1.17;;;;;;;;;;5115484;28;20452;-64
2023/10/08 02:39:13;;;;;;;1.03;1.03;;;;;;;;;;5115880;28;20786;-64
2023/10/08 02:41:41;;;;;;;0.70;0.70;;;;;;;;;;5115901;28;20458;-64
2023/10/08 02:44:12;;;;;;;3.80;2.40;;;;;;;;;;5115587;28;20446;-64
2023/10/08 02:46:40;;;;;;;0.70;0.70;;;;;;;;;;5115467;28;20943;-64
2023/10/08 02:49:10;;;;;;;0.70;0.70;;;;;;;;;;5115738;28;20568;-64
2023/10/08 02:51:38;;;;;;;0.80;0.80;;;;;;;;;;5115385;28;20990;-64
2023/10/08 02:54:06;;;;;;;0.80;0.80;;;;;;;;;;5115489;28;20445;-64
2023/10/08 02:56:34;;;;;;;0.80;0.80;;;;;;;;;;5115830;28;21064;-64
2023/10/08 02:59:01;;;;;;;0.80;0.80;;;;;;;;;;5115324;28;20511;-64
2023/10/08 03:01:33;;;;;;;0.80;0.80;;;;;;;;;;5115543;28;20437;-64
2023/10/08 03:04:08;;;;;;;0.80;0.80;;;;;;;;;;5115400;28;20433;-64
2023/10/08 03:06:38;;;;;;;0.80;0.80;;;;;;;;;;5115553;28;20420;-64
2023/10/08 03:09:05;;;;;;;0.70;0.70;;;;;;;;;;5114752;28;20439;-64
2023/10/08 03:11:35;;;;;;;0.80;0.80;;;;;;;;;;5114705;28;20532;-64
2023/10/08 03:14:03;;;;;;;0.90;0.90;;;;;;;;;;5115294;28;20507;-64
2023/10/08 03:16:35;;;;;;;0.70;0.70;;;;;;;;;;5115220;28;20443;-64
2023/10/08 03:19:05;;;;;;;0.80;0.80;;;;;;;;;;5115153;28;20571;-64
2023/10/08 03:27:07;;;;;;;0.70;0.70;;;;;;;;;;5103901;28;20420;-64
2023/10/08 03:29:40;;;;;;;0.80;0.80;;;;;;;;;;5114723;28;20966;-64
2023/10/08 03:32:13;;;;;;;0.70;0.70;;;;;;;;;;5114475;28;20463;-64
2023/10/08 03:34:43;;;;;;;0.80;0.80;;;;;;;;;;5114670;28;20861;-64
2023/10/08 03:37:19;;;;;;;0.80;0.80;;;;;;;;;;5115086;28;20430;-65
2023/10/08 03:40:00;;;;;;;0.80;0.80;;;;;;;;;;5113587;28;20474;-64
2023/10/08 03:42:33;;;;;;;0.80;0.80;;;;;;;;;;5114574;28;20783;-64
2023/10/08 03:45:09;;;;;;;0.80;0.80;;;;;;;;;;5114645;28;20492;-64
2023/10/08 03:47:38;;;;;;;0.80;0.80;;;;;;;;;;5114093;28;20477;-64
2023/10/08 03:50:09;;;;;;;1.37;1.27;;;;;;;;;;5106230;28;20445;-64
2023/10/08 03:52:38;;;;;;;0.80;0.80;;;;;;;;;;5092894;28;20437;-64
2023/10/08 03:55:13;;;;;;;0.80;0.80;;;;;;;;;;5093179;28;20442;-64
2023/10/08 03:57:44;;;;;;;0.80;0.80;;;;;;;;;;5092567;28;20444;-64
2023/10/08 04:00:14;;;;;;;0.80;0.80;;;;;;;;;;5093031;28;20477;-64
2023/10/08 04:02:46;;;;;;;0.70;0.70;;;;;;;;;;5093204;28;20434;-64
2023/10/08 04:05:19;;;;;;;0.80;0.80;;;;;;;;;;5092699;28;20450;-64
2023/10/08 04:10:49;;;;;;;0.80;0.80;;;;;;;;;;5091816;28;20517;-64
2023/10/08 04:13:17;;;;;;;0.93;0.93;;;;;;;;;;5092741;28;20448;-64
2023/10/08 04:15:44;;;;;;;0.70;0.70;;;;;;;;;;5092341;28;20454;-64
2023/10/08 04:18:13;;;;;;;0.80;0.80;;;;;;;;;;5092830;28;20435;-64
2023/10/08 04:20:59;;;;;;;0.80;0.80;;;;;;;;;;5092599;28;20533;-64
2023/10/08 04:23:26;;;;;;;0.80;0.80;;;;;;;;;;5092532;28;20442;-64
2023/10/08 04:25:54;;;;;;;0.90;0.90;;;;;;;;;;5092157;28;20455;-65
2023/10/08 04:28:21;;;;;;;0.80;0.80;;;;;;;;;;5092454;28;20450;-65
2023/10/08 04:30:50;;;;;;;0.80;0.80;;;;;;;;;;5092555;28;20441;-65
2023/10/08 04:33:19;;;;;;;0.80;0.80;;;;;;;;;;5092808;28;20924;-65
2023/10/08 04:35:51;;;;;;;0.70;0.70;;;;;;;;;;5092979;28;20477;-64
2023/10/08 04:38:21;;;;;;;0.77;0.77;;;;;;;;;;5093114;28;20476;-64
2023/10/08 04:40:50;;;;;;;0.80;0.80;;;;;;;;;;5093020;28;20435;-65
2023/10/08 04:43:22;;;;;;;0.80;0.80;;;;;;;;;;5092783;28;20473;-64
2023/10/08 04:45:50;;;;;;;0.80;0.80;;;;;;;;;;5092824;28;20435;-65
2023/10/08 04:48:20;;;;;;;0.80;0.80;;;;;;;;;;5091888;27;20474;-64
2023/10/08 04:50:57;;;;;;;0.90;0.90;;;;;;;;;;5091818;28;20484;-64
2023/10/08 04:53:31;;;;;;;0.80;0.80;;;;;;;;;;5092463;28;20426;-64
2023/10/08 04:55:59;;;;;;;0.80;0.80;;;;;;;;;;5093120;28;20449;-64
2023/10/08 04:58:33;;;;;;;0.80;0.80;;;;;;;;;;5092938;28;20503;-64
2023/10/08 05:01:17;;;;;;;0.70;0.70;;;;;;;;;;5092431;28;20928;-64
2023/10/08 05:04:06;;;;;;;0.80;0.80;;;;;;;;;;5092855;28;20431;-64
2023/10/08 05:09:22;;;;;;;0.70;0.70;;;;;;;;;;5078751;27;20491;-64
2023/10/08 05:12:08;;;;;;;0.70;0.70;;;;;;;;;;5092342;28;20441;-64
2023/10/08 05:14:38;;;;;;;0.80;0.80;;;;;;;;;;5092941;28;20651;-64
2023/10/08 05:17:09;;;;;;;0.70;0.70;;;;;;;;;;5092434;28;20441;-64
2023/10/08 05:19:48;;;;;;;0.90;0.90;;;;;;;;;;5091922;28;20464;-64
2023/10/08 05:22:34;;;;;;;0.80;0.80;;;;;;;;;;5092489;28;20484;-64
2023/10/08 05:25:07;;;;;;;0.70;0.70;;;;;;;;;;5092217;28;20510;-64
2023/10/08 05:30:28;;;;;;;1.23;1.17;;;;;;;;;;5091850;28;20415;-64
2023/10/08 05:33:12;;;;;;;0.73;0.73;;;;;;;;;;5092070;28;20462;-64
2023/10/08 05:35:54;;;;;;;0.80;0.80;;;;;;;;;;5092416;28;20503;-64
2023/10/08 05:38:38;;;;;;;0.80;0.80;;;;;;;;;;5092571;28;20965;-64
2023/10/08 05:41:16;;;;;;;0.80;0.80;;;;;;;;;;5092484;28;20478;-64
2023/10/08 05:43:55;;;;;;;0.80;0.80;;;;;;;;;;5091632;28;20446;-64
2023/10/08 05:46:47;;;;;;;0.80;0.80;;;;;;;;;;5092512;28;20438;-64
2023/10/08 05:57:46;;;;;;;0.80;0.80;;;;;;;;;;5091980;28;20440;-65
2023/10/08 06:03:10;;;;;;;0.70;0.70;;;;;;;;;;5092639;28;20404;-65
2023/10/08 06:06:02;;;;;;;0.70;0.70;;;;;;;;;;5095484;28;20431;-65
2023/10/08 06:08:48;;;;;;;0.73;0.73;;;;;;;;;;5095121;28;20535;-65
2023/10/08 06:11:27;;;;;;;0.80;0.80;;;;;;;;;;5095393;28;20442;-69
2023/10/08 06:14:00;;;;;;;0.80;0.80;;;;;;;;;;5095668;28;20430;-64
2023/10/08 06:16:31;;;;;;;0.80;0.80;;;;;;;;;;5095641;28;20915;-64
2023/10/08 06:18:59;;;;;;;0.70;0.70;;;;;;;;;;5095574;28;20460;-65
2023/10/08 06:21:26;;;;;;;0.70;0.70;;;;;;;;;;5113438;28;20481;-65
2023/10/08 06:23:56;;;;;;;1.30;1.20;;;;;;;;;;5116264;28;20453;-64
2023/10/08 06:26:25;;;;;;;0.70;0.70;;;;;;;;;;5109352;28;21038;-64
2023/10/08 06:28:57;;;;;;;0.70;0.70;;;;;;;;;;5094540;28;20457;-65
2023/10/08 06:31:24;;;;;;;0.80;0.80;;;;;;;;;;5094763;28;20582;-64
2023/10/08 06:33:52;;;;;;;0.80;0.80;;;;;;;;;;5095238;28;20512;-65
2023/10/08 06:36:24;;;;;;;0.80;0.80;;;;;;;;;;5095162;28;20476;-65
2023/10/08 06:38:51;;;;;;;0.90;0.90;;;;;;;;;;5095382;28;20442;-65
2023/10/08 06:41:19;;;;;;;0.73;0.73;;;;;;;;;;5095108;28;20548;-65
2023/10/08 06:43:49;;;;;;;0.80;0.80;;;;;;;;;;5095437;28;20490;-65
2023/10/08 06:46:21;;;;;;;0.80;0.80;;;;;;;;;;5094996;28;20544;-65
2023/10/08 06:48:49;;;;;;;0.80;0.80;;;;;;;;;;5094196;28;20551;-65
2023/10/08 06:51:18;;;;;;;0.70;0.70;;;;;;;;;;5094143;28;20530;-65
2023/10/08 06:53:45;;;;;;;0.70;0.70;;;;;;;;;;5094534;28;20453;-65
2023/10/08 06:56:13;;;;;;;0.70;0.70;;;;;;;;;;5098473;28;20437;-65
2023/10/08 06:58:45;;;;;;;1.07;1.07;;;;;;;;;;5114888;28;20452;-65
2023/10/08 07:01:13;;;;;;;0.70;0.70;;;;;;;;;;5114806;28;20461;-65
2023/10/08 07:03:40;;;;;;;0.80;0.80;;;;;;;;;;5115017;28;20958;-66
2023/10/08 07:06:25;;;;;;;0.80;0.80;;;;;;;;;;5115109;28;20442;-65
2023/10/08 07:08:54;;;;;;;0.80;0.80;;;;;;;;;;5113983;27;20814;-65
2023/10/08 07:11:22;;;;;;;0.80;0.80;;;;;;;;;;5114438;28;20473;-65
2023/10/08 07:13:52;;;;;;;0.70;0.70;;;;;;;;;;5114658;28;20520;-65
2023/10/08 07:16:20;;;;;;;0.80;0.80;;;;;;;;;;5114874;28;20548;-65
2023/10/08 07:18:52;;;;;;;0.80;0.80;;;;;;;;;;5114916;28;20495;-65
2023/10/08 07:21:28;;;;;;;0.80;0.80;;;;;;;;;;5115093;28;20418;-66
2023/10/08 07:23:57;;;;;;;0.80;0.80;;;;;;;;;;5114919;28;20444;-66
2023/10/08 07:26:24;;;;;;;0.80;0.80;;;;;;;;;;5114625;28;20472;-66
2023/10/08 07:28:53;;;;;;;0.80;0.80;;;;;;;;;;5113650;27;20818;-65
2023/10/08 07:31:21;;;;;;;0.80;0.80;;;;;;;;;;5113874;28;20529;-66
2023/10/08 07:33:55;;;;;;;0.80;0.80;;;;;;;;;;5114457;28;20529;-66
2023/10/08 07:36:23;;;;;;;0.90;0.90;;;;;;;;;;5114340;28;20430;-66
2023/10/08 07:38:50;;;;;;;0.80;0.80;;;;;;;;;;5114315;28;20939;-66
2023/10/08 07:41:20;;;;;;;0.80;0.80;;;;;;;;;;5114567;28;20483;-66
2023/10/08 07:43:53;;;;;;;0.80;0.80;;;;;;;;;;5114357;28;20525;-65
2023/10/08 07:46:21;;;;;;;0.90;0.90;;;;;;;;;;5114523;28;20859;-66
2023/10/08 07:48:50;;;;;;;0.80;0.80;;;;;;;;;;5113030;27;20556;-65
2023/10/08 07:51:21;;;;;;;0.80;0.80;;;;;;;;;;5113937;28;20460;-65
2023/10/08 07:53:49;;;;;;;0.80;0.80;;;;;;;;;;5113646;28;20530;-66
2023/10/08 07:56:17;;;;;;;0.80;0.80;;;;;;;;;;5113727;28;20531;-66
2023/10/08 07:58:45;;;;;;;0.80;0.80;;;;;;;;;;5114278;28;20826;-66
2023/10/08 08:01:13;;;;;;;0.70;0.70;;;;;;;;;;5113780;28;20487;-66
2023/10/08 08:03:44;;;;;;;0.80;0.80;;;;;;;;;;5114187;28;20450;-66
2023/10/08 08:06:13;;;;;;;0.80;0.80;;;;;;;;;;5114136;28;20489;-67
2023/10/08 08:08:41;;;;;;;0.80;0.80;;;;;;;;;;5113603;28;20449;-66
2023/10/08 08:11:11;;;;;;;0.80;0.80;;;;;;;;;;5112673;28;20506;-65
2023/10/08 08:13:42;;;;;;;0.80;0.80;;;;;;;;;;5113221;28;20453;-65
2023/10/08 08:16:17;;;;;;;0.80;0.80;;;;;;;;;;5113868;28;20782;-65
2023/10/08 08:18:46;;;;;;;0.80;0.80;;;;;;;;;;5113553;28;20438;-65
2023/10/08 08:21:15;;;;;;;0.80;0.80;;;;;;;;;;5113067;28;20481;-65
2023/10/08 08:23:47;;;;;;;0.80;0.80;;;;;;;;;;5114067;28;20446;-65
2023/10/08 08:26:26;;;;;;;0.80;0.80;;;;;;;;;;5108690;28;20438;-65
2023/10/08 08:28:54;;;;;;;0.80;0.80;;;;;;;;;;5092563;27;20591;-65
2023/10/08 08:31:21;;;;;;;0.80;0.80;;;;;;;;;;5092225;28;20538;-65
2023/10/08 08:34:02;;;;;;;0.80;0.80;;;;;;;;;;5092077;28;20883;-65
2023/10/08 08:36:29;;;;;;;0.70;0.70;;;;;;;;;;5093060;28;20858;-66
2023/10/08 08:38:57;;;;;;;0.80;0.80;;;;;;;;;;5092730;28;20483;-65
2023/10/08 08:41:24;;;;;;;0.80;0.80;;;;;;;;;;5093052;28;20894;-65
2023/10/08 08:43:57;;;;;;;0.80;0.80;;;;;;;;;;5092950;28;20453;-65
2023/10/08 08:46:28;;;;;;;0.80;0.80;;;;;;;;;;5093083;28;20796;-65
2023/10/08 08:48:57;;;;;;;0.80;0.80;;;;;;;;;;5092351;27;20483;-66
2023/10/08 08:51:25;;;;;;;0.80;0.80;;;;;;;;;;5092370;28;21025;-65
2023/10/08 08:53:52;;;;;;;0.70;0.70;;;;;;;;;;5092589;28;20503;-65
2023/10/08 08:56:19;;;;;;;0.80;0.80;;;;;;;;;;5092471;28;20936;-65
2023/10/08 08:58:48;;;;;;;0.80;0.80;;;;;;;;;;5088248;28;20531;-66
2023/10/08 09:01:17;;;;;;;0.70;0.70;;;;;;;;;;5092018;28;20482;-66
2023/10/08 09:03:47;;;;;;;0.70;0.70;;;;;;;;;;5092410;28;20442;-66
2023/10/08 09:06:16;;;;;;;1.07;1.07;;;;;;;;;;5093487;28;20432;-66
2023/10/08 09:08:45;;;;;;;0.80;0.80;;;;;;;;;;5091885;28;20983;-66
2023/10/08 09:11:15;;;;;;;0.80;0.80;;;;;;;;;;5091765;28;20460;-66
2023/10/08 09:13:43;;;;;;;0.80;0.80;;;;;;;;;;5092400;28;20523;-65
2023/10/08 09:16:13;;;;;;;0.70;0.70;;;;;;;;;;5092462;28;20474;-66
2023/10/08 09:18:40;;;;;;;0.80;0.80;;;;;;;;;;5092328;28;20471;-66
2023/10/08 09:21:18;;;;;;;0.70;0.70;;;;;;;;;;5092017;28;21038;-66
2023/10/08 09:23:51;;;;;;;0.70;0.70;;;;;;;;;;5092704;28;20468;-66
2023/10/08 09:26:19;;;;;;;0.70;0.70;;;;;;;;;;5092851;28;20507;-66
2023/10/08 09:28:48;;;;;;;0.80;0.80;;;;;;;;;;5092298;28;20481;-66
2023/10/08 09:31:17;;;;;;;0.70;0.70;;;;;;;;;;5092399;28;20944;-66
2023/10/08 09:33:45;;;;;;;0.80;0.80;;;;;;;;;;5092687;28;20447;-65
2023/10/08 09:36:18;;;;;;;0.80;0.80;;;;;;;;;;5092573;28;20436;-65
2023/10/08 09:38:48;;;;;;;0.70;0.70;;;;;;;;;;5094474;28;20438;-66
2023/10/08 09:41:15;;;;;;;0.80;0.80;;;;;;;;;;5096740;28;20467;-66
2023/10/08 09:43:45;;;;;;;0.80;0.80;;;;;;;;;;5096945;28;20434;-65
2023/10/08 09:46:15;;;;;;;0.70;0.70;;;;;;;;;;5096911;28;20447;-66
2023/10/08 09:48:44;;;;;;;0.83;0.83;;;;;;;;;;5096369;28;20513;-66
2023/10/08 09:51:12;;;;;;;0.70;0.70;;;;;;;;;;5096552;28;20482;-66
2023/10/08 09:53:44;;;;;;;0.77;0.77;;;;;;;;;;5096080;28;20449;-66
2023/10/08 09:56:15;;;;;;;0.70;0.70;;;;;;;;;;5096547;28;20435;-65
2023/10/08 09:58:43;;;;;;;0.80;0.80;;;;;;;;;;5096349;28;20439;-65
2023/10/08 10:01:11;;;;;;;0.80;0.80;;;;;;;;;;5096682;28;20478;-66
2023/10/08 10:03:41;;;;;;;0.80;0.80;;;;;;;;;;5096269;28;20756;-66
2023/10/08 10:06:14;;;;;;;0.70;0.70;;;;;;;;;;5094556;28;20465;-65
2023/10/08 10:08:41;;;;;;;0.77;0.77;;;;;;;;;;5095488;28;20534;-66
2023/10/08 10:11:08;;;;;;;0.70;0.70;;;;;;;;;;5095325;28;20478;-66
2023/10/08 10:13:40;;;;;;;0.80;0.80;;;;;;;;;;5095489;28;20447;-65
2023/10/08 10:16:08;;;;;;;0.80;0.80;;;;;;;;;;5095441;28;20467;-66
2023/10/08 10:18:35;;;;;;;0.70;0.70;;;;;;;;;;5094893;28;20950;-65
2023/10/08 10:21:26;;;;;;;0.80;0.80;;;;;;;;;;5095566;28;20516;-66
2023/10/08 10:23:53;;;;;;;0.70;0.70;;;;;;;;;;5095017;28;20461;-65
2023/10/08 10:26:25;;;;;;;0.70;0.70;;;;;;;;;;5094406;28;20443;-65
2023/10/08 10:29:11;;;;;;;0.70;0.70;;;;;;;;;;5095126;28;20453;-65
2023/10/08 10:31:44;;;;;;;0.80;0.80;;;;;;;;;;5094957;28;20528;-65
2023/10/08 10:34:12;;;;;;;0.80;0.80;;;;;;;;;;5095318;28;20500;-66
2023/10/08 10:36:41;;;;;;;0.70;0.70;;;;;;;;;;5095271;28;20452;-65
2023/10/08 10:39:16;;;;;;;0.70;0.70;;;;;;;;;;5095480;28;20480;-65
2023/10/08 10:41:44;;;;;;;0.80;0.80;;;;;;;;;;5095879;28;20559;-65
2023/10/08 10:44:13;;;;;;;0.70;0.70;;;;;;;;;;5094482;28;20445;-65
2023/10/08 10:46:42;;;;;;;0.70;0.70;;;;;;;;;;5094210;27;20445;-64
2023/10/08 10:49:21;;;;;;;0.70;0.70;;;;;;;;;;5093920;28;20496;-64
2023/10/08 10:51:48;;;;;;;0.70;0.70;;;;;;;;;;5094649;28;20450;-65
2023/10/08 10:54:23;;;;;;;0.70;0.70;;;;;;;;;;5094701;28;21028;-65
2023/10/08 10:57:03;;;;;;;0.77;0.77;;;;;;;;;;5094719;28;20438;-64
2023/10/08 10:59:36;;;;;;;1.13;1.13;;;;;;;;;;5094799;28;20967;-64
2023/10/08 11:02:07;;;;;;;0.70;0.70;;;;;;;;;;5094912;28;20478;-64
2023/10/08 11:04:47;;;;;;;0.70;0.70;;;;;;;;;;5093798;28;21238;-64
2023/10/08 11:07:15;;;;;;;0.90;0.90;;;;;;;;;;5094077;27;20508;-64
2023/10/08 11:09:44;;;;;;;0.80;0.80;;;;;;;;;;5094188;28;20971;-64
2023/10/08 11:12:12;;;;;;;0.70;0.70;;;;;;;;;;5094515;28;21000;-64
2023/10/08 11:14:42;;;;;;;0.70;0.70;;;;;;;;;;5094306;28;20449;-63
2023/10/08 11:17:15;;;;;;;0.80;0.80;;;;;;;;;;5094438;28;20456;-65
2023/10/08 11:19:45;;;;;;;0.70;0.70;;;;;;;;;;5094751;28;20799;-65
2023/10/08 11:22:16;;;;;;;2.23;2.13;;;;;;;;;;5094280;28;20465;-65
2023/10/08 11:24:47;;;;;;;0.70;0.70;;;;;;;;;;5093720;28;20472;-64
2023/10/08 11:27:28;;;;;;;0.70;0.70;;;;;;;;;;5093632;28;20444;-64
2023/10/08 11:29:57;;;;;;;0.70;0.70;;;;;;;;;;5093775;28;20459;-64
2023/10/08 11:32:26;;;;;;;0.80;0.80;;;;;;;;;;5093767;28;20447;-65
2023/10/08 11:34:59;;;;;;;1.67;1.57;;;;;;;;;;5093762;28;20443;-64
2023/10/08 11:37:29;;;;;;;1.47;1.37;;;;;;;;;;5094105;28;20431;-65
2023/10/08 11:39:58;;;;;;;0.70;0.70;;;;;;;;;;5094231;28;20499;-64
2023/10/08 11:42:43;;;;;;;0.77;0.77;;;;;;;;;;5094115;28;20485;-65
2023/10/08 11:45:24;;;;;;;0.80;0.80;;;;;;;;;;5093498;28;20434;-64
2023/10/08 11:47:56;;;;;;;0.70;0.70;;;;;;;;;;5092858;28;21003;-64
2023/10/08 11:50:34;;;;;;;0.80;0.80;;;;;;;;;;5093783;28;20424;-64
2023/10/08 11:53:03;;;;;;;0.80;0.80;;;;;;;;;;5093810;28;20919;-64
2023/10/08 11:55:34;;;;;;;0.80;0.80;;;;;;;;;;5093852;28;20443;-64
2023/10/08 11:58:09;;;;;;;0.70;0.70;;;;;;;;;;5093907;28;20434;-65
2023/10/08 12:00:43;;;;;;;0.90;0.90;;;;;;;;;;5092899;28;20423;-64
2023/10/08 12:03:12;;;;;;;0.70;0.70;;;;;;;;;;5094267;28;20420;-64
2023/10/08 12:05:47;;;;;;;0.70;0.70;;;;;;;;;;5092685;28;20533;-65
2023/10/08 12:08:16;;;;;;;0.70;0.70;;;;;;;;;;5093180;27;20440;-64
2023/10/08 12:10:43;;;;;;;0.90;0.90;;;;;;;;;;5093358;28;20782;-64
2023/10/08 12:13:11;;;;;;;0.70;0.70;;;;;;;;;;5093500;28;20438;-64
2023/10/08 12:15:39;;;;;;;0.70;0.70;;;;;;;;;;5093325;28;20450;-64
2023/10/08 12:18:13;;;;;;;0.80;0.80;;;;;;;;;;5093578;28;20499;-64
2023/10/08 12:20:45;;;;;;;0.70;0.70;;;;;;;;;;5093055;28;20420;-64
2023/10/08 12:23:23;;;;;;;1.33;1.27;;;;;;;;;;5093744;28;20435;-64
2023/10/08 12:25:52;;;;;;;0.80;0.80;;;;;;;;;;5093546;28;20427;-64
2023/10/08 12:28:19;;;;;;;0.80;0.80;;;;;;;;;;5093301;28;20450;-65
2023/10/08 12:30:49;;;;;;;0.70;0.70;;;;;;;;;;5093083;28;20441;-64
2023/10/08 12:33:16;;;;;;;0.80;0.80;;;;;;;;;;5093451;28;20444;-64
2023/10/08 12:35:45;;;;;;;0.77;0.77;;;;;;;;;;5093045;28;20439;-65
2023/10/08 12:38:14;;;;;;;1.63;1.53;;;;;;;;;;5093855;28;20875;-64
2023/10/08 12:40:52;;;;;;;1.33;1.23;;;;;;;;;;5093050;28;20929;-64
2023/10/08 12:43:20;;;;;;;0.70;0.70;;;;;;;;;;5092987;28;20470;-64
2023/10/08 12:45:51;;;;;;;0.80;0.80;;;;;;;;;;5092992;28;20437;-63
2023/10/08 12:48:22;;;;;;;0.80;0.80;;;;;;;;;;5093095;28;20477;-64
2023/10/08 12:50:56;;;;;;;0.70;0.70;;;;;;;;;;5093864;28;20796;-65
2023/10/08 12:53:26;;;;;;;0.80;0.80;;;;;;;;;;5093432;28;20791;-64
2023/10/08 12:55:54;;;;;;;0.80;0.80;;;;;;;;;;5093101;28;20435;-65
2023/10/08 12:58:25;;;;;;;0.70;0.70;;;;;;;;;;5093178;28;20539;-65
2023/10/08 13:00:57;;;;;;;0.80;0.80;;;;;;;;;;5092686;28;20425;-67
2023/10/08 13:03:24;;;;;;;0.80;0.80;;;;;;;;;;5093897;28;20518;-65
2023/10/08 13:05:53;;;;;;;0.80;0.80;;;;;;;;;;5092986;28;20478;-65
2023/10/08 13:08:21;;;;;;;0.70;0.70;;;;;;;;;;5092968;28;20435;-64
2023/10/08 13:10:49;;;;;;;0.70;0.70;;;;;;;;;;5092872;28;20538;-66
2023/10/08 13:13:18;;;;;;;0.80;0.80;;;;;;;;;;5094279;28;20481;-66
2023/10/08 13:15:45;;;;;;;0.80;0.80;;;;;;;;;;5095676;28;20455;-66
2023/10/08 13:18:13;;;;;;;0.80;0.80;;;;;;;;;;5096135;28;20466;-64
2023/10/08 13:20:44;;;;;;;0.80;0.80;;;;;;;;;;5096633;28;20457;-64
2023/10/08 13:23:13;;;;;;;0.80;0.80;;;;;;;;;;5096540;28;20870;-64
2023/10/08 13:25:40;;;;;;;0.80;0.80;;;;;;;;;;5096549;28;20533;-66
2023/10/08 13:28:09;;;;;;;0.80;0.80;;;;;;;;;;5096653;28;20913;-65
2023/10/08 13:30:37;;;;;;;0.70;0.70;;;;;;;;;;5096419;28;20449;-64
2023/10/08 13:33:04;;;;;;;0.80;0.80;;;;;;;;;;5096168;28;20443;-66
2023/10/08 13:35:33;;;;;;;0.80;0.80;;;;;;;;;;5095294;28;20497;-67
2023/10/08 13:38:06;;;;;;;0.80;0.80;;;;;;;;;;5096087;28;20801;-64
2023/10/08 13:40:39;;;;;;;0.80;0.80;;;;;;;;;;5096507;28;20434;-65
2023/10/08 13:43:06;;;;;;;0.77;0.77;;;;;;;;;;5095906;28;20466;-65
2023/10/08 13:45:37;;;;;;;0.70;0.70;;;;;;;;;;5096430;28;20525;-65
2023/10/08 13:48:05;;;;;;;0.70;0.70;;;;;;;;;;5096328;28;20476;-64
2023/10/08 13:50:32;;;;;;;0.70;0.70;;;;;;;;;;5096277;28;20997;-64
2023/10/08 13:52:59;;;;;;;0.70;0.70;;;;;;;;;;5096290;28;20448;-65
2023/10/08 13:55:27;;;;;;;0.80;0.80;;;;;;;;;;5095774;28;20533;-64
2023/10/08 13:57:57;;;;;;;0.80;0.80;;;;;;;;;;5094934;27;20431;-64
2023/10/08 14:00:27;;;;;;;0.80;0.80;;;;;;;;;;5096067;28;20435;-64
2023/10/08 14:02:54;;;;;;;0.80;0.80;;;;;;;;;;5095560;28;20484;-63
2023/10/08 14:05:24;;;;;;;0.80;0.80;;;;;;;;;;5095729;28;20436;-63
2023/10/08 14:07:53;;;;;;;0.80;0.80;;;;;;;;;;5096304;28;20855;-63
2023/10/08 14:10:20;;;;;;;1.20;1.10;;;;;;;;;;5095841;28;20451;-63
2023/10/08 14:12:49;;;;;;;0.80;0.80;;;;;;;;;;5095739;28;20472;-63
2023/10/08 14:15:18;;;;;;;0.80;0.80;;;;;;;;;;5094817;28;20936;-64
2023/10/08 14:17:48;;;;;;;0.70;0.70;;;;;;;;;;5095065;27;20523;-64
2023/10/08 14:20:21;;;;;;;0.80;0.80;;;;;;;;;;5095502;28;20816;-64
2023/10/08 14:22:57;;;;;;;1.00;1.00;;;;;;;;;;5095324;28;20894;-64
2023/10/08 14:25:24;;;;;;;0.70;0.70;;;;;;;;;;5094409;28;20470;-64
2023/10/08 14:28:04;;;;;;;0.70;0.70;;;;;;;;;;5095768;28;20436;-64
2023/10/08 14:30:35;;;;;;;0.80;0.80;;;;;;;;;;5095339;28;20517;-64
2023/10/08 14:33:04;;;;;;;0.77;0.77;;;;;;;;;;5095066;28;20456;-64
2023/10/08 14:43:48;;;;;;;0.80;0.80;;;;;;;;;;5094875;28;20779;-64
2023/10/08 14:46:18;;;;;;;0.80;0.80;;;;;;;;;;5095271;28;20443;-64
2023/10/08 14:48:46;;;;;;;0.70;0.70;;;;;;;;;;5094859;28;20884;-64
2023/10/08 14:51:19;;;;;;;0.80;0.80;;;;;;;;;;5094922;28;20442;-64
2023/10/08 14:53:47;;;;;;;0.80;0.80;;;;;;;;;;5094472;28;20497;-64
2023/10/08 14:56:15;;;;;;;0.80;0.80;;;;;;;;;;5093868;27;20505;-63
2023/10/08 14:58:43;;;;;;;3.13;2.87;;;;;;;;;;5094080;28;20454;-64
2023/10/08 15:01:13;;;;;;;2.60;2.03;;;;;;;;;;5094502;28;20478;-64
2023/10/08 15:03:41;;;;;;;0.77;0.77;;;;;;;;;;5094385;28;20979;-65
2023/10/08 15:06:10;;;;;;;1.47;1.37;;;;;;;;;;5094351;28;20453;-64
2023/10/08 15:08:37;;;;;;;0.70;0.70;;;;;;;;;;5094638;28;20505;-63
2023/10/08 15:11:06;;;;;;;2.27;2.17;;;;;;;;;;5093683;28;20978;-63
2023/10/08 15:13:38;;;;;;;1.00;1.00;;;;;;;;;;5094522;28;20436;-63
2023/10/08 15:16:05;;;;;;;1.00;1.00;;;;;;;;;;5093783;28;20427;-64
2023/10/08 15:18:41;;;;;;;0.70;0.70;;;;;;;;;;5094158;28;20439;-64
2023/10/08 15:21:10;;;;;;;5.77;2.90;;;;;;;;;;5094243;28;20520;-64
2023/10/08 15:23:37;;;;;;;2.70;1.63;;;;;;;;;;5094302;28;20548;-63
2023/10/08 15:26:05;;;;;;;0.80;0.80;;;;;;;;;;5094543;28;20529;-64
2023/10/08 15:28:32;;;;;;;0.80;0.80;;;;;;;;;;5094292;28;20452;-64
2023/10/08 15:31:00;;;;;;;4.27;3.97;;;;;;;;;;5094460;28;20440;-64
2023/10/08 15:33:27;;;;;;;1.10;1.10;;;;;;;;;;5093854;28;20478;-64
2023/10/08 15:35:54;;;;;;;1.00;1.00;;;;;;;;;;5093513;27;20917;-64
2023/10/08 15:38:24;;;;;;;0.80;0.80;;;;;;;;;;5093394;28;20431;-64